Time;durP1;ratioP1;P1;durP2;ratioP2;P2;SDS_P1;SDS_P2;PMS_P1;PMS_P2;Temp;Humidity;BMP_temperature;BMP_pressure;BME280_temperature;BME280_humidity;BME280_pressure;Samples;Min_cycle;Max_cycle;Signal;HPM_P1;HPM_P2
2023/07/20 00:01:31;;;;;;;4.57;2.57;;;17.90;99.90;;;;;;5036568;28;20469;-80
2023/07/20 00:03:58;;;;;;;3.20;2.53;;;17.90;99.90;;;;;;5037123;28;21007;-82
2023/07/20 00:06:27;;;;;;;4.20;2.60;;;17.90;99.90;;;;;;5037769;28;20447;-80
2023/07/20 00:08:54;;;;;;;3.10;2.10;;;17.90;99.90;;;;;;5037706;28;20455;-81
2023/07/20 00:11:21;;;;;;;5.90;2.33;;;17.90;99.90;;;;;;5036111;28;20464;-80
2023/07/20 00:13:48;;;;;;;7.63;2.57;;;18.00;99.90;;;;;;5037455;28;20489;-81
2023/07/20 00:16:15;;;;;;;4.93;2.33;;;17.90;99.90;;;;;;5036677;28;20564;-80
2023/07/20 00:18:43;;;;;;;5.30;2.33;;;18.00;99.90;;;;;;5037223;28;20456;-80
2023/07/20 00:21:10;;;;;;;8.30;3.27;;;18.00;99.90;;;;;;5036300;28;20487;-81
2023/07/20 00:23:37;;;;;;;5.87;2.67;;;18.00;99.90;;;;;;5036498;28;20483;-78
2023/07/20 00:26:04;;;;;;;3.07;2.77;;;18.00;99.90;;;;;;5035757;28;20459;-80
2023/07/20 00:28:30;;;;;;;4.80;3.00;;;18.00;99.90;;;;;;5036513;28;20483;-80
2023/07/20 00:30:57;;;;;;;6.57;3.00;;;18.00;99.90;;;;;;5036826;28;20462;-81
2023/07/20 00:33:24;;;;;;;5.10;2.87;;;18.00;99.90;;;;;;5036509;28;20476;-81
2023/07/20 00:35:52;;;;;;;3.60;2.73;;;18.00;99.90;;;;;;5035259;28;20956;-81
2023/07/20 00:38:20;;;;;;;7.30;2.90;;;18.00;99.90;;;;;;5036463;28;20796;-80
2023/07/20 00:40:48;;;;;;;6.50;3.13;;;18.00;99.90;;;;;;5036384;28;20468;-80
2023/07/20 00:43:15;;;;;;;5.40;3.07;;;18.00;99.90;;;;;;5035403;28;20476;-81
2023/07/20 00:45:42;;;;;;;6.60;2.90;;;18.00;99.90;;;;;;5035666;28;20483;-81
2023/07/20 00:48:09;;;;;;;4.20;3.10;;;18.00;99.90;;;;;;5036748;28;20452;-81
2023/07/20 00:50:36;;;;;;;5.47;3.43;;;18.00;99.90;;;;;;5036095;28;20460;-80
2023/07/20 00:53:05;;;;;;;5.20;3.10;;;18.00;99.90;;;;;;5036406;28;20473;-79
2023/07/20 00:55:32;;;;;;;4.40;3.17;;;18.00;99.90;;;;;;5035839;28;20444;-80
2023/07/20 00:58:00;;;;;;;9.40;3.20;;;18.00;99.90;;;;;;5035860;28;20492;-80
2023/07/20 01:00:27;;;;;;;6.80;3.60;;;18.00;99.90;;;;;;5036242;28;20513;-81
2023/07/20 01:02:54;;;;;;;5.23;3.40;;;17.90;99.90;;;;;;5036622;28;20491;-81
2023/07/20 01:05:22;;;;;;;4.10;3.47;;;17.90;99.90;;;;;;5036692;28;20491;-80
2023/07/20 01:07:54;;;;;;;4.37;3.30;;;17.90;99.90;;;;;;5035872;28;20451;-80
2023/07/20 01:10:29;;;;;;;4.70;3.30;;;17.90;99.90;;;;;;5035717;28;20454;-81
2023/07/20 01:12:57;;;;;;;6.43;3.37;;;17.90;99.90;;;;;;5035096;28;20549;-81
2023/07/20 01:15:24;;;;;;;5.57;3.97;;;17.80;99.90;;;;;;5035447;28;20451;-79
2023/07/20 01:17:51;;;;;;;3.87;3.17;;;17.80;99.90;;;;;;5035880;28;20491;-81
2023/07/20 01:20:20;;;;;;;5.63;3.50;;;17.80;99.90;;;;;;5035793;28;20463;-80
2023/07/20 01:23:15;;;;;;;4.30;3.47;;;17.90;99.90;;;;;;5035762;28;20456;-81
2023/07/20 01:26:09;;;;;;;5.60;3.60;;;17.80;99.90;;;;;;5034701;28;20818;-79
2023/07/20 01:29:07;;;;;;;6.50;3.53;;;17.80;99.90;;;;;;5035798;28;20534;-81
2023/07/20 01:31:37;;;;;;;4.33;3.67;;;17.80;99.90;;;;;;5035837;28;20463;-81
2023/07/20 01:34:06;;;;;;;10.63;4.90;;;17.80;99.90;;;;;;5035059;28;20471;-80
2023/07/20 01:36:37;;;;;;;7.03;3.50;;;17.80;99.90;;;;;;5035121;28;20487;-81
2023/07/20 01:39:04;;;;;;;5.60;3.13;;;17.80;99.90;;;;;;5035759;28;20436;-80
2023/07/20 01:41:31;;;;;;;6.20;3.60;;;17.80;99.90;;;;;;5035237;28;20462;-80
2023/07/20 01:44:00;;;;;;;4.30;3.57;;;17.80;99.90;;;;;;5034745;28;20484;-81
2023/07/20 01:46:26;;;;;;;6.47;3.80;;;17.70;99.90;;;;;;5030895;28;20457;-80
2023/07/20 01:48:55;;;;;;;6.67;3.43;;;17.70;99.90;;;;;;5014845;28;20462;-80
2023/07/20 01:51:22;;;;;;;6.67;3.70;;;17.70;99.90;;;;;;5015039;28;20488;-80
2023/07/20 01:53:49;;;;;;;6.87;5.07;;;17.70;99.90;;;;;;5022143;28;20567;-81
2023/07/20 01:56:16;;;;;;;6.17;4.30;;;17.70;99.90;;;;;;5034731;28;20455;-80
2023/07/20 01:58:43;;;;;;;5.77;3.70;;;17.70;99.90;;;;;;5034411;28;20535;-80
2023/07/20 02:01:10;;;;;;;6.13;4.23;;;17.70;99.90;;;;;;5035246;28;20464;-80
2023/07/20 02:03:36;;;;;;;6.53;4.53;;;17.70;99.90;;;;;;5034390;28;20548;-81
2023/07/20 02:06:04;;;;;;;6.37;3.97;;;17.80;99.90;;;;;;5034303;28;20458;-81
2023/07/20 02:08:31;;;;;;;6.20;3.90;;;17.70;99.90;;;;;;5034983;28;20538;-80
2023/07/20 02:10:58;;;;;;;8.60;4.03;;;17.70;99.90;;;;;;5034546;28;20542;-81
2023/07/20 02:13:25;;;;;;;6.13;4.20;;;17.70;99.90;;;;;;5034183;28;20480;-82
2023/07/20 02:15:52;;;;;;;6.43;4.57;;;17.70;99.90;;;;;;5034671;28;20516;-79
2023/07/20 02:18:18;;;;;;;6.57;4.03;;;17.70;99.90;;;;;;5035640;28;20495;-80
2023/07/20 02:20:45;;;;;;;4.80;4.20;;;17.70;99.90;;;;;;5036194;28;20466;-81
2023/07/20 02:23:13;;;;;;;6.07;4.43;;;17.70;99.90;;;;;;5035011;28;20980;-81
2023/07/20 02:25:41;;;;;;;10.33;5.23;;;17.70;99.90;;;;;;5035104;28;20541;-80
2023/07/20 02:28:08;;;;;;;6.73;5.73;;;17.60;99.90;;;;;;5034400;28;20462;-79
2023/07/20 02:30:38;;;;;;;9.80;4.40;;;17.60;99.90;;;;;;5036024;28;20526;-82
2023/07/20 02:33:06;;;;;;;8.53;5.53;;;17.60;99.90;;;;;;5034657;28;20471;-81
2023/07/20 02:35:33;;;;;;;8.10;5.60;;;17.60;99.90;;;;;;5029804;28;20464;-80
2023/07/20 02:37:59;;;;;;;6.90;5.70;;;17.50;99.90;;;;;;5023552;28;20531;-81
2023/07/20 02:40:27;;;;;;;9.70;4.77;;;17.50;99.90;;;;;;5035858;28;20545;-81
2023/07/20 02:42:54;;;;;;;6.90;5.40;;;17.40;99.90;;;;;;5036279;28;20462;-82
2023/07/20 02:45:21;;;;;;;7.33;6.00;;;17.40;99.90;;;;;;5036174;28;20546;-80
2023/07/20 02:47:48;;;;;;;7.67;6.40;;;17.40;99.90;;;;;;5036212;28;20449;-81
2023/07/20 02:50:15;;;;;;;10.93;7.50;;;17.40;99.90;;;;;;5035431;28;20463;-81
2023/07/20 02:52:41;;;;;;;8.30;6.50;;;17.30;99.90;;;;;;5039149;28;21021;-79
2023/07/20 02:55:09;;;;;;;10.63;7.20;;;17.20;99.90;;;;;;5039175;28;21005;-80
2023/07/20 02:57:37;;;;;;;11.20;7.30;;;17.20;99.90;;;;;;5038655;28;20580;-80
2023/07/20 03:00:05;;;;;;;10.50;7.53;;;17.20;99.90;;;;;;5039062;28;20551;-80
2023/07/20 03:02:32;;;;;;;11.43;7.57;;;17.10;99.90;;;;;;5035456;28;20543;-80
2023/07/20 03:05:01;;;;;;;7.87;7.10;;;17.10;99.90;;;;;;5037684;28;20899;-82
2023/07/20 03:07:29;;;;;;;10.67;7.13;;;17.10;99.90;;;;;;5036783;28;20930;-79
2023/07/20 03:09:56;;;;;;;11.07;9.23;;;17.10;99.90;;;;;;5037082;28;20962;-81
2023/07/20 03:12:24;;;;;;;11.30;8.53;;;17.00;99.90;;;;;;5039808;28;20468;-80
2023/07/20 03:14:52;;;;;;;12.97;9.83;;;17.00;99.90;;;;;;5038034;28;20498;-82
2023/07/20 03:17:20;;;;;;;19.63;12.00;;;17.00;99.90;;;;;;5036027;28;20486;-79
2023/07/20 03:19:47;;;;;;;14.97;10.10;;;17.00;99.90;;;;;;5034425;28;20461;-79
2023/07/20 03:22:14;;;;;;;11.80;9.53;;;17.00;99.90;;;;;;5044227;28;20442;-82
2023/07/20 03:24:40;;;;;;;14.00;10.03;;;17.00;99.90;;;;;;5034833;28;20474;-79
2023/07/20 03:27:07;;;;;;;10.93;8.90;;;17.10;99.90;;;;;;5039073;28;20446;-80
2023/07/20 03:29:34;;;;;;;12.27;10.07;;;17.10;99.90;;;;;;5039790;28;20464;-81
2023/07/20 03:32:03;;;;;;;10.47;9.00;;;17.10;99.90;;;;;;5040396;28;20468;-81
2023/07/20 03:34:29;;;;;;;12.60;10.40;;;17.10;99.90;;;;;;5045040;28;21070;-80
2023/07/20 03:36:56;;;;;;;10.53;8.97;;;17.10;99.90;;;;;;5034206;28;20515;-83
2023/07/20 03:39:23;;;;;;;16.87;10.23;;;17.20;99.90;;;;;;5037455;28;20453;-81
2023/07/20 03:41:50;;;;;;;15.00;11.20;;;17.10;99.90;;;;;;5038078;28;20459;-81
2023/07/20 03:44:17;;;;;;;14.30;11.83;;;17.20;99.90;;;;;;5039944;28;20582;-80
2023/07/20 03:46:44;;;;;;;15.73;11.10;;;17.10;99.90;;;;;;5037868;28;20456;-80
2023/07/20 03:49:13;;;;;;;13.77;11.20;;;17.10;99.90;;;;;;5041700;28;20536;-81
2023/07/20 03:51:39;;;;;;;13.93;11.73;;;17.10;99.90;;;;;;5043592;28;20453;-78
2023/07/20 03:54:07;;;;;;;19.10;12.10;;;17.20;99.90;;;;;;5043220;28;20575;-80
2023/07/20 03:56:35;;;;;;;15.87;12.73;;;17.20;99.90;;;;;;5043199;28;20464;-82
2023/07/20 03:59:02;;;;;;;15.70;11.13;;;17.20;99.90;;;;;;5042372;28;20513;-79
2023/07/20 04:01:29;;;;;;;16.83;12.30;;;17.20;99.90;;;;;;5043112;28;20462;-79
2023/07/20 04:03:56;;;;;;;13.97;12.33;;;17.20;99.90;;;;;;5042924;28;20505;-82
2023/07/20 04:06:24;;;;;;;16.33;12.67;;;17.20;99.90;;;;;;5036314;28;20475;-80
2023/07/20 04:08:51;;;;;;;15.67;12.80;;;17.10;99.90;;;;;;5043372;28;20448;-80
2023/07/20 04:11:17;;;;;;;17.70;13.57;;;17.10;99.90;;;;;;5042019;28;20525;-82
2023/07/20 04:13:44;;;;;;;15.33;10.60;;;17.10;99.90;;;;;;5042351;28;20547;-79
2023/07/20 04:16:11;;;;;;;13.30;10.53;;;17.10;99.90;;;;;;5041128;28;20540;-80
2023/07/20 04:18:38;;;;;;;14.77;11.77;;;17.00;99.90;;;;;;5040906;28;20484;-82
2023/07/20 04:21:05;;;;;;;16.23;11.60;;;17.00;99.90;;;;;;5036654;28;20457;-79
2023/07/20 04:23:33;;;;;;;13.70;12.07;;;17.00;99.90;;;;;;5043010;28;20556;-80
2023/07/20 04:25:59;;;;;;;26.30;14.60;;;17.10;99.90;;;;;;5039215;28;20466;-80
2023/07/20 04:28:26;;;;;;;20.13;16.27;;;17.00;99.90;;;;;;5040838;28;20541;-83
2023/07/20 04:30:53;;;;;;;16.17;14.03;;;17.10;99.90;;;;;;5039894;28;20841;-81
2023/07/20 04:33:20;;;;;;;20.00;15.20;;;17.00;99.90;;;;;;5040501;28;20571;-81
2023/07/20 04:35:51;;;;;;;20.27;16.17;;;17.00;99.90;;;;;;5040083;28;20477;-80
2023/07/20 04:38:19;;;;;;;16.70;14.30;;;17.00;99.90;;;;;;5040880;28;20480;-80
2023/07/20 04:40:49;;;;;;;16.70;14.83;;;17.00;99.90;;;;;;5041591;28;20459;-81
2023/07/20 04:43:16;;;;;;;14.60;13.07;;;17.00;99.90;;;;;;5038636;28;20482;-80
2023/07/20 04:45:43;;;;;;;15.63;14.03;;;17.00;99.90;;;;;;5036237;28;20524;-80
2023/07/20 04:48:12;;;;;;;23.47;15.30;;;17.00;99.90;;;;;;5037921;28;20447;-82
2023/07/20 04:50:39;;;;;;;16.67;14.93;;;17.00;99.90;;;;;;5037428;28;20510;-80
2023/07/20 04:53:08;;;;;;;16.47;14.20;;;17.10;99.90;;;;;;5037206;28;20468;-79
2023/07/20 04:55:36;;;;;;;17.30;15.37;;;17.10;99.90;;;;;;5033874;28;20449;-78
2023/07/20 04:58:05;;;;;;;15.40;13.87;;;17.10;99.90;;;;;;5034927;28;20493;-79
2023/07/20 05:00:33;;;;;;;15.37;13.80;;;17.10;99.90;;;;;;5035787;28;20460;-79
2023/07/20 05:03:00;;;;;;;16.13;14.50;;;17.10;99.90;;;;;;5035481;28;20467;-79
2023/07/20 05:05:26;;;;;;;18.50;14.47;;;17.20;99.90;;;;;;5033726;28;20459;-79
2023/07/20 05:07:54;;;;;;;15.20;13.17;;;17.20;99.90;;;;;;5014882;28;20457;-77
2023/07/20 05:10:21;;;;;;;17.20;15.50;;;17.20;99.90;;;;;;5004927;28;20464;-80
2023/07/20 05:12:48;;;;;;;17.87;14.67;;;17.30;99.90;;;;;;5037787;28;20539;-79
2023/07/20 05:15:16;;;;;;;15.00;13.50;;;17.30;99.90;;;;;;5036255;28;20504;-78
2023/07/20 05:17:43;;;;;;;13.43;12.00;;;17.10;99.90;;;;;;5037398;28;20483;-79
2023/07/20 05:20:12;;;;;;;12.70;11.37;;;17.10;99.90;;;;;;5031688;28;20459;-80
2023/07/20 05:22:39;;;;;;;13.17;11.50;;;17.10;99.90;;;;;;5034252;28;20445;-82
2023/07/20 05:25:08;;;;;;;10.90;9.80;;;17.10;99.90;;;;;;5037066;28;20807;-77
2023/07/20 05:27:35;;;;;;;11.63;10.53;;;17.10;99.90;;;;;;5036820;28;20451;-81
2023/07/20 05:30:02;;;;;;;11.20;9.83;;;17.20;99.90;;;;;;5039986;28;20460;-81
2023/07/20 05:32:30;;;;;;;9.73;8.73;;;17.10;99.90;;;;;;5036817;28;20485;-83
2023/07/20 05:34:57;;;;;;;10.37;9.37;;;17.20;99.90;;;;;;5040767;28;20478;-82
2023/07/20 05:37:24;;;;;;;9.63;8.70;;;17.20;99.90;;;;;;5038518;28;20515;-82
2023/07/20 05:39:51;;;;;;;10.40;9.40;;;17.20;99.90;;;;;;5037857;28;20524;-80
2023/07/20 05:42:18;;;;;;;10.77;9.67;;;17.20;99.90;;;;;;5036081;28;20465;-80
2023/07/20 05:44:45;;;;;;;9.83;8.93;;;17.20;99.90;;;;;;5031550;28;20496;-79
2023/07/20 05:47:11;;;;;;;10.10;9.10;;;17.30;99.90;;;;;;5030076;28;21188;-78
2023/07/20 05:49:40;;;;;;;9.80;8.80;;;17.30;99.90;;;;;;5031790;28;20551;-80
2023/07/20 05:52:07;;;;;;;8.53;7.73;;;17.30;99.90;;;;;;5032663;28;20480;-80
2023/07/20 05:54:34;;;;;;;11.70;8.00;;;17.40;99.90;;;;;;5054099;22;20582;-80
2023/07/20 05:57:01;;;;;;;9.00;7.73;;;17.40;99.90;;;;;;5051137;28;20536;-80
2023/07/20 05:59:29;;;;;;;8.07;7.20;;;17.40;99.90;;;;;;5046111;28;20476;-79
2023/07/20 06:01:56;;;;;;;6.80;6.10;;;17.30;99.90;;;;;;5051439;28;20465;-80
2023/07/20 06:04:23;;;;;;;10.13;6.87;;;17.40;99.90;;;;;;5048816;28;20475;-80
2023/07/20 06:06:51;;;;;;;7.53;6.83;;;17.40;99.90;;;;;;5046625;28;20466;-81
2023/07/20 06:09:18;;;;;;;7.60;6.90;;;17.40;99.90;;;;;;5057332;28;20476;-81
2023/07/20 06:11:44;;;;;;;7.63;6.80;;;17.40;99.90;;;;;;5051346;28;20465;-80
2023/07/20 06:14:11;;;;;;;8.40;7.60;;;17.40;99.90;;;;;;5047394;28;20554;-80
2023/07/20 06:16:38;;;;;;;7.87;7.17;;;17.40;99.90;;;;;;5052796;28;20219;-80
2023/07/20 06:19:05;;;;;;;9.07;7.43;;;17.40;99.90;;;;;;5052797;28;20585;-80
2023/07/20 06:21:31;;;;;;;7.90;7.20;;;17.40;99.90;;;;;;5052388;28;20450;-80
2023/07/20 06:23:59;;;;;;;7.30;6.70;;;17.40;99.90;;;;;;5048668;28;20484;-80
2023/07/20 06:26:26;;;;;;;7.30;6.50;;;17.40;99.90;;;;;;5053725;28;20528;-81
2023/07/20 06:28:53;;;;;;;6.83;6.03;;;17.40;99.90;;;;;;5051029;28;20465;-80
2023/07/20 06:31:20;;;;;;;7.80;6.53;;;17.30;99.90;;;;;;5055113;28;21161;-79
2023/07/20 06:33:47;;;;;;;7.20;6.50;;;17.30;99.90;;;;;;5054127;28;20475;-81
2023/07/20 06:36:14;;;;;;;7.40;6.70;;;17.30;99.90;;;;;;5064374;28;20451;-81
2023/07/20 06:38:40;;;;;;;6.17;5.57;;;17.30;99.90;;;;;;5054468;28;20538;-80
2023/07/20 06:41:08;;;;;;;7.57;6.70;;;17.30;99.90;;;;;;5055968;28;20549;-81
2023/07/20 06:43:35;;;;;;;6.40;5.80;;;17.20;99.90;;;;;;5055689;28;20520;-81
2023/07/20 06:46:02;;;;;;;7.10;6.40;;;17.20;99.90;;;;;;5052530;28;20459;-82
2023/07/20 06:48:29;;;;;;;6.30;5.53;;;17.30;99.90;;;;;;5055271;28;20518;-80
2023/07/20 06:50:56;;;;;;;7.40;6.70;;;17.30;99.90;;;;;;5052640;28;20455;-81
2023/07/20 06:53:23;;;;;;;7.83;7.03;;;17.30;99.90;;;;;;5053061;28;20455;-82
2023/07/20 06:55:50;;;;;;;7.30;6.57;;;17.30;99.90;;;;;;5053285;28;20477;-83
2023/07/20 06:58:18;;;;;;;7.07;6.40;;;17.30;99.90;;;;;;5051487;28;21074;-81
2023/07/20 07:00:45;;;;;;;7.40;6.60;;;17.30;99.90;;;;;;5052115;28;20538;-80
2023/07/20 07:03:12;;;;;;;7.67;6.97;;;17.30;99.90;;;;;;5059238;28;20457;-80
2023/07/20 07:05:39;;;;;;;8.20;7.47;;;17.30;99.90;;;;;;5053350;28;20470;-82
2023/07/20 07:08:06;;;;;;;9.53;8.53;;;17.30;99.90;;;;;;5052900;28;20488;-82
2023/07/20 07:10:33;;;;;;;8.70;7.80;;;17.30;99.90;;;;;;5051743;28;20540;-81
2023/07/20 07:13:00;;;;;;;8.57;7.77;;;17.40;99.90;;;;;;5053789;28;20847;-79
2023/07/20 07:15:28;;;;;;;11.30;9.70;;;17.50;99.90;;;;;;5052729;28;20484;-81
2023/07/20 07:17:55;;;;;;;10.07;9.17;;;17.40;99.90;;;;;;5054272;28;20455;-81
2023/07/20 07:20:23;;;;;;;10.23;9.23;;;17.50;99.90;;;;;;5053538;28;20556;-82
2023/07/20 07:22:52;;;;;;;10.23;9.23;;;17.60;99.90;;;;;;5056401;28;20939;-82
2023/07/20 07:25:19;;;;;;;9.60;8.70;;;17.70;99.90;;;;;;5055818;28;20519;-82
2023/07/20 07:27:46;;;;;;;7.13;6.30;;;17.70;99.90;;;;;;5057340;28;21027;-82
2023/07/20 07:30:14;;;;;;;6.37;5.77;;;17.80;99.90;;;;;;5055993;28;20557;-82
2023/07/20 07:32:42;;;;;;;7.70;6.90;;;17.90;99.90;;;;;;5058390;28;20454;-80
2023/07/20 07:35:09;;;;;;;9.97;8.97;;;18.00;99.90;;;;;;5057617;28;20468;-82
2023/07/20 07:37:36;;;;;;;11.30;10.20;;;18.10;99.90;;;;;;5055078;28;20546;-81
2023/07/20 07:40:05;;;;;;;7.10;6.40;;;18.20;99.90;;;;;;5056085;28;20487;-81
2023/07/20 07:42:32;;;;;;;8.80;7.50;;;18.30;99.90;;;;;;5057082;28;20856;-82
2023/07/20 07:44:59;;;;;;;6.33;5.77;;;18.30;99.90;;;;;;5051796;28;20476;-81
2023/07/20 07:47:26;;;;;;;6.83;6.13;;;18.30;99.90;;;;;;5052247;28;20467;-82
2023/07/20 07:49:54;;;;;;;6.90;6.23;;;18.30;99.90;;;;;;5057074;28;20446;-82
2023/07/20 07:52:21;;;;;;;8.20;7.40;;;18.30;99.90;;;;;;5054055;28;20454;-82
2023/07/20 07:54:48;;;;;;;8.70;7.80;;;18.40;99.90;;;;;;5055923;28;20510;-82
2023/07/20 07:57:15;;;;;;;7.63;6.90;;;18.40;99.90;;;;;;5056028;28;20459;-82
2023/07/20 07:59:41;;;;;;;8.07;7.30;;;18.60;99.90;;;;;;5057096;28;20856;-82
2023/07/20 08:02:08;;;;;;;7.50;6.77;;;18.70;99.90;;;;;;5057776;28;20486;-82
2023/07/20 08:04:35;;;;;;;6.60;6.00;;;18.80;99.90;;;;;;5057293;28;21114;-82
2023/07/20 08:07:04;;;;;;;7.03;6.33;;;18.90;99.90;;;;;;5057387;28;20444;-82
2023/07/20 08:09:31;;;;;;;8.40;5.80;;;19.00;99.90;;;;;;5051572;28;20859;-82
2023/07/20 08:11:58;;;;;;;6.00;5.40;;;19.10;99.90;;;;;;5055780;28;20546;-82
2023/07/20 08:14:24;;;;;;;7.80;5.07;;;19.30;99.90;;;;;;5058180;28;20558;-82
2023/07/20 08:16:51;;;;;;;6.83;4.80;;;19.30;99.90;;;;;;5056295;28;20455;-82
2023/07/20 08:19:18;;;;;;;7.13;4.20;;;19.30;99.90;;;;;;5060834;28;20480;-81
2023/07/20 08:21:45;;;;;;;4.83;4.33;;;19.30;99.90;;;;;;5060631;28;20530;-82
2023/07/20 08:24:18;;;;;;;4.27;3.73;;;19.30;99.90;;;;;;5051907;28;20495;-81
2023/07/20 08:26:45;;;;;;;3.93;3.60;;;19.30;99.90;;;;;;5044085;28;20441;-81
2023/07/20 08:29:12;;;;;;;4.70;4.17;;;19.40;99.90;;;;;;5044570;28;20446;-82
2023/07/20 08:31:40;;;;;;;4.47;4.10;;;19.40;28.90;;;;;;5047267;28;20477;-81
2023/07/20 08:34:06;;;;;;;4.77;4.37;;;19.40;71.00;;;;;;5051377;28;20533;-81
2023/07/20 08:36:33;;;;;;;5.63;5.13;;;19.40;56.70;;;;;;5056332;28;20459;-81
2023/07/20 08:39:03;;;;;;;5.80;5.30;;;19.30;99.90;;;;;;5057030;28;20924;-83
2023/07/20 08:41:31;;;;;;;4.80;4.40;;;19.10;99.90;;;;;;5058130;28;20467;-81
2023/07/20 08:43:59;;;;;;;4.50;4.03;;;19.10;6.40;;;;;;5055741;28;20476;-83
2023/07/20 08:46:29;;;;;;;4.10;3.70;;;19.20;82.60;;;;;;5055792;28;20546;-81
2023/07/20 08:48:57;;;;;;;4.77;4.37;;;19.40;99.90;;;;;;5055537;28;20462;-81
2023/07/20 08:51:25;;;;;;;4.77;4.10;;;19.60;99.90;;;;;;5057364;28;20496;-82
2023/07/20 08:53:53;;;;;;;4.80;4.40;;;19.70;95.20;;;;;;5056887;28;20841;-82
2023/07/20 08:56:21;;;;;;;4.63;4.23;;;19.70;51.20;;;;;;5055904;28;20456;-81
2023/07/20 08:58:49;;;;;;;5.30;4.80;;;19.80;95.20;;;;;;5057761;28;20494;-81
2023/07/20 09:01:18;;;;;;;3.70;3.40;;;20.00;89.40;;;;;;5057147;28;20440;-82
2023/07/20 09:03:46;;;;;;;2.80;2.50;;;20.10;1.00;;;;;;5057341;28;20468;-82
2023/07/20 09:06:13;;;;;;;2.90;2.57;;;20.00;1.00;;;;;;5056068;28;20456;-82
2023/07/20 09:08:40;;;;;;;2.87;2.30;;;19.90;1.00;;;;;;5056509;28;20959;-81
2023/07/20 09:11:07;;;;;;;2.93;2.63;;;19.90;1.00;;;;;;5056485;28;20531;-82
2023/07/20 09:13:35;;;;;;;3.30;3.00;;;20.10;1.00;;;;;;5056668;28;20463;-82
2023/07/20 09:16:04;;;;;;;5.23;2.73;;;20.30;1.00;;;;;;5055390;28;20460;-81
2023/07/20 09:18:34;;;;;;;2.57;2.30;;;20.60;1.00;;;;;;5057365;28;20456;-82
2023/07/20 09:21:03;;;;;;;4.10;2.60;;;21.00;1.00;;;;;;5056722;28;20486;-82
2023/07/20 09:23:33;;;;;;;4.10;2.50;;;21.00;99.90;;;;;;5056495;28;20452;-82
2023/07/20 09:26:01;;;;;;;3.70;3.40;;;20.70;46.50;;;;;;5055060;28;20523;-82
2023/07/20 09:28:28;;;;;;;3.97;3.37;;;20.70;1.00;;;;;;5056115;28;20450;-82
2023/07/20 09:30:58;;;;;;;3.60;3.30;;;20.80;99.90;;;;;;5056243;28;20948;-81
2023/07/20 09:33:26;;;;;;;2.90;2.50;;;21.00;1.00;;;;;;5056755;28;20452;-81
2023/07/20 09:35:53;;;;;;;3.43;3.10;;;21.20;35.30;;;;;;5058410;28;20462;-81
2023/07/20 09:38:20;;;;;;;5.30;4.30;;;21.60;99.90;;;;;;5058669;28;20960;-81
2023/07/20 09:40:47;;;;;;;3.53;3.23;;;22.00;1.00;;;;;;5059580;28;21022;-82
2023/07/20 09:43:17;;;;;;;3.73;2.83;;;22.20;99.90;;;;;;5060042;28;20454;-82
2023/07/20 09:45:44;;;;;;;3.60;3.03;;;22.40;28.60;;;;;;5057433;28;20482;-81
2023/07/20 09:48:11;;;;;;;3.30;2.40;;;22.20;1.00;;;;;;5061338;28;20475;-81
2023/07/20 09:50:49;;;;;;;3.10;2.50;;;22.00;1.00;;;;;;5058808;28;20998;-82
2023/07/20 09:53:17;;;;;;;2.80;2.50;;;21.60;99.90;;;;;;5058464;28;20856;-82
2023/07/20 09:55:46;;;;;;;3.20;2.27;;;21.50;99.90;;;;;;5058608;28;20509;-81
2023/07/20 09:58:13;;;;;;;3.70;2.83;;;21.60;99.90;;;;;;5060137;28;20831;-82
2023/07/20 10:00:43;;;;;;;2.43;2.23;;;22.20;99.90;;;;;;5060744;28;20480;-82
2023/07/20 10:03:13;;;;;;;3.40;2.57;;;22.80;28.00;;;;;;5058687;28;21044;-82
2023/07/20 10:05:47;;;;;;;4.20;2.80;;;23.10;1.00;;;;;;5058751;28;20487;-82
2023/07/20 10:08:16;;;;;;;3.30;2.67;;;23.50;1.00;;;;;;5060702;28;20448;-82
2023/07/20 10:10:43;;;;;;;2.90;2.47;;;23.70;15.60;;;;;;5059853;28;20458;-81
2023/07/20 10:13:15;;;;;;;3.20;2.30;;;24.00;99.90;;;;;;5058343;28;20511;-82
2023/07/20 10:15:47;;;;;;;2.60;1.80;;;23.90;99.90;;;;;;5054417;28;20498;-81
2023/07/20 10:18:19;;;;;;;2.70;1.90;;;23.40;1.00;;;;;;5059802;28;20740;-82
2023/07/20 10:20:48;;;;;;;2.00;1.50;;;23.20;99.90;;;;;;5060107;28;20474;-81
2023/07/20 10:23:16;;;;;;;2.67;1.80;;;23.40;1.00;;;;;;5061775;28;20531;-81
2023/07/20 10:25:43;;;;;;;2.57;1.80;;;23.70;99.90;;;;;;5059922;28;20474;-82
2023/07/20 10:28:11;;;;;;;3.17;2.03;;;24.00;99.90;;;;;;5061068;28;20451;-82
2023/07/20 10:30:39;;;;;;;3.10;2.63;;;24.40;1.00;;;;;;5057304;28;20448;-81
2023/07/20 10:33:07;;;;;;;2.40;1.97;;;24.60;99.90;;;;;;5060533;28;20952;-82
2023/07/20 10:35:53;;;;;;;2.60;1.90;;;24.70;1.00;;;;;;5059930;28;20476;-82
2023/07/20 10:38:20;;;;;;;2.60;2.40;;;24.70;1.00;;;;;;5059663;28;20444;-83
2023/07/20 10:40:55;;;;;;;2.47;1.90;;;24.80;1.00;;;;;;5059448;28;20975;-81
2023/07/20 10:43:22;;;;;;;2.63;1.50;;;25.00;2.70;;;;;;5035700;28;20453;-84
2023/07/20 10:45:53;;;;;;;2.43;1.30;;;25.10;1.00;;;;;;5037741;28;20527;-85
2023/07/20 10:48:22;;;;;;;1.70;1.10;;;25.30;1.00;;;;;;5048381;28;20782;-85
2023/07/20 10:51:12;;;;;;;2.10;1.20;;;25.30;1.00;;;;;;5056769;28;20471;-85
2023/07/20 10:53:39;;;;;;;1.97;1.00;;;25.60;1.00;;;;;;5051233;28;20506;-83
2023/07/20 10:56:13;;;;;;;1.90;1.10;;;25.80;99.90;;;;;;5056885;28;20428;-83
2023/07/20 10:58:40;;;;;;;2.23;1.20;;;25.90;1.00;;;;;;5058145;28;20940;-83
2023/07/20 11:01:07;;;;;;;1.80;1.00;;;25.50;1.00;;;;;;5060382;28;20487;-83
2023/07/20 11:03:40;;;;;;;2.10;1.07;;;25.00;1.00;;;;;;5060459;28;20988;-84
2023/07/20 11:06:37;;;;;;;2.10;1.00;;;24.60;1.00;;;;;;5061285;28;20539;-85
2023/07/20 11:09:11;;;;;;;1.70;0.83;;;24.80;1.00;;;;;;5050860;28;20458;-86
2023/07/20 11:11:39;;;;;;;2.23;1.00;;;25.30;1.00;;;;;;5053370;28;20451;-82
2023/07/20 11:14:07;;;;;;;2.23;1.10;;;25.50;1.00;;;;;;5061994;28;20481;-82
2023/07/20 11:16:36;;;;;;;2.10;1.10;;;25.80;1.00;;;;;;5060866;28;20531;-81
2023/07/20 11:19:02;;;;;;;1.80;0.80;;;26.20;1.00;;;;;;5062809;28;20468;-81
2023/07/20 11:21:30;;;;;;;3.00;1.10;;;26.30;1.00;;;;;;5064010;28;20578;-82
2023/07/20 11:23:58;;;;;;;1.80;1.00;;;26.60;1.00;;;;;;5064593;28;20851;-80
2023/07/20 11:26:25;;;;;;;2.07;0.90;;;26.80;1.00;;;;;;5059836;28;20970;-82
2023/07/20 11:28:52;;;;;;;1.90;0.90;;;27.00;1.00;;;;;;5061627;28;20527;-80
2023/07/20 11:31:19;;;;;;;1.90;0.90;;;27.20;99.90;;;;;;5061915;28;20444;-81
2023/07/20 11:33:46;;;;;;;1.70;0.70;;;27.30;99.90;;;;;;5062237;28;20475;-80
2023/07/20 11:36:14;;;;;;;1.60;0.80;;;27.40;99.90;;;;;;5053742;28;20460;-80
2023/07/20 11:38:43;;;;;;;1.77;1.00;;;27.40;99.90;;;;;;5053476;28;20864;-79
2023/07/20 11:41:12;;;;;;;1.70;0.97;;;27.40;99.90;;;;;;5065957;28;20476;-85
2023/07/20 11:43:42;;;;;;;2.37;0.80;;;27.30;99.90;;;;;;5071942;28;20482;-82
2023/07/20 11:46:08;;;;;;;1.60;0.80;;;27.40;99.90;;;;;;5071154;28;20456;-82
2023/07/20 11:48:35;;;;;;;2.00;0.93;;;27.60;99.90;;;;;;5060957;28;20535;-81
2023/07/20 11:51:02;;;;;;;1.83;0.80;;;27.60;99.90;;;;;;5063385;28;20444;-80
2023/07/20 11:53:29;;;;;;;2.60;0.83;;;27.80;99.90;;;;;;5064667;28;21062;-80
2023/07/20 11:55:57;;;;;;;2.10;0.90;;;27.70;99.90;;;;;;5076392;22;20506;-80
2023/07/20 11:58:28;;;;;;;2.27;1.00;;;27.40;99.90;;;;;;5061686;28;20452;-79
2023/07/20 12:00:56;;;;;;;3.17;1.20;;;26.70;99.90;;;;;;5035120;28;20571;-78
2023/07/20 12:03:23;;;;;;;2.00;0.80;;;26.00;99.90;;;;;;5058393;28;20531;-80
2023/07/20 12:05:50;;;;;;;2.47;0.90;;;25.60;99.90;;;;;;5057365;28;20836;-80
2023/07/20 12:08:17;;;;;;;1.80;0.90;;;25.40;99.90;;;;;;5057007;28;20510;-78
2023/07/20 12:10:44;;;;;;;1.60;0.90;;;25.00;99.90;;;;;;5059588;28;20547;-81
2023/07/20 12:13:12;;;;;;;1.70;0.87;;;25.00;99.90;;;;;;5058878;28;20999;-80
2023/07/20 12:15:40;;;;;;;1.70;0.90;;;25.50;99.90;;;;;;5057921;28;20468;-80
2023/07/20 12:18:07;;;;;;;1.90;0.80;;;26.50;99.90;;;;;;5058194;28;20458;-80
2023/07/20 12:20:36;;;;;;;1.90;1.00;;;26.80;99.90;;;;;;5058373;28;20482;-80
2023/07/20 12:23:05;;;;;;;2.03;0.80;;;26.70;99.90;;;;;;5058095;28;20495;-80
2023/07/20 12:25:38;;;;;;;2.17;0.80;;;26.50;99.90;;;;;;5056753;28;20893;-78
2023/07/20 12:28:06;;;;;;;4.17;1.10;;;26.50;99.90;;;;;;5057939;28;20451;-79
2023/07/20 12:30:33;;;;;;;2.67;1.10;;;27.10;99.90;;;;;;5055182;28;20448;-81
2023/07/20 12:33:02;;;;;;;2.70;0.87;;;27.60;99.90;;;;;;5056689;28;20507;-80
2023/07/20 12:35:30;;;;;;;1.90;1.20;;;28.00;99.90;;;;;;5057337;28;20551;-80
2023/07/20 12:37:56;;;;;;;1.70;1.00;;;28.30;99.90;;;;;;5058169;28;20459;-79
2023/07/20 12:40:24;;;;;;;1.60;0.90;;;28.60;99.90;;;;;;5042467;28;20558;-81
2023/07/20 12:42:51;;;;;;;2.60;1.10;;;28.90;99.90;;;;;;5058366;28;20458;-80
2023/07/20 12:45:17;;;;;;;3.00;1.07;;;29.10;99.90;;;;;;5057969;28;20563;-79
2023/07/20 12:47:44;;;;;;;1.97;1.00;;;29.40;99.90;;;;;;5057516;28;20455;-83